Swords, Ireland
Current Conditions -  °F | °C
As of 8:00 PM on Monday 24 Nov 2014 (Local Time) from EIDW Reporting Station
Broken Clouds Broken Clouds  
Wind Chill:   Ceiling: 4200
Heat Index:   Visibility: 6mi
Dew Point:   Wind: 8mph
Humidity: 81%   Direction: 230°SW
Pressure: 30.27"   Gusts: NA
Location:  53.45°N, 6.22°W
Report Text: EIDW 242000Z 23007KT 9999 FEW018 SCT034 BKN042 08/05 Q1025 NOSIG
Loading
Personal Weather Stations






























Interactive Weather Map New forecast layout! Learn more

10-Day Weather Forecast

Advertisements
Track Severe Weather on mobile